Time;durP1;ratioP1;P1;durP2;ratioP2;P2;SDS_P1;SDS_P2;PMS_P1;PMS_P2;Temp;Humidity;BMP_temperature;BMP_pressure;BME280_temperature;BME280_humidity;BME280_pressure;Samples;Min_cycle;Max_cycle;Signal;HPM_P1;HPM_P2
2022/11/24 00:01:09;;;;;;;18.90;4.90;;;;;;;11.71;62.49;100208.44;4939325;29;20079;-68
2022/11/24 00:03:36;;;;;;;19.10;4.65;;;;;;;11.71;62.23;100197.69;4921734;29;20122;-68
2022/11/24 00:06:09;;;;;;;17.30;4.03;;;;;;;11.71;62.18;100200.38;4938585;29;20054;-69
2022/11/24 00:08:38;;;;;;;22.50;5.05;;;;;;;11.71;62.42;100202.22;4902441;29;20052;-68
2022/11/24 00:11:07;;;;;;;21.90;5.30;;;;;;;11.70;62.14;100203.19;4919843;29;20435;-68
2022/11/24 00:13:34;;;;;;;18.55;5.00;;;;;;;11.68;62.46;100200.63;4919577;29;20099;-68
2022/11/24 00:16:10;;;;;;;13.25;4.63;;;;;;;11.70;62.15;100203.19;4919811;29;20040;-68
2022/11/24 00:18:39;;;;;;;15.75;4.97;;;;;;;11.66;62.10;100212.50;4919026;29;20190;-68
2022/11/24 00:21:06;;;;;;;17.77;4.28;;;;;;;11.63;62.44;100216.31;4902543;29;20091;-69
2022/11/24 00:23:34;;;;;;;19.92;4.30;;;;;;;11.61;62.16;100217.44;4919253;29;20058;-68
2022/11/24 00:26:09;;;;;;;15.13;4.18;;;;;;;11.62;62.39;100216.44;4918876;29;20135;-68
2022/11/24 00:28:36;;;;;;;20.20;4.93;;;;;;;11.62;62.43;100220.00;4919244;29;20126;-68
2022/11/24 00:31:12;;;;;;;12.75;4.85;;;;;;;11.62;62.13;100222.69;4919207;29;20139;-68
2022/11/24 00:33:43;;;;;;;15.10;4.07;;;;;;;11.64;62.14;100225.25;4919098;29;20062;-69
2022/11/24 00:36:10;;;;;;;13.10;4.05;;;;;;;11.65;62.25;100226.94;4918381;29;20076;-70
2022/11/24 00:38:37;;;;;;;15.45;4.07;;;;;;;11.63;62.23;100231.59;4919149;29;20115;-69
2022/11/24 00:41:04;;;;;;;17.55;4.07;;;;;;;11.61;62.08;100234.41;4886527;29;20048;-69
2022/11/24 00:43:31;;;;;;;18.63;4.03;;;;;;;11.57;61.92;100224.06;4918904;29;20044;-69
2022/11/24 00:45:58;;;;;;;13.93;4.05;;;;;;;11.57;61.96;100227.59;4918876;29;20063;-69
2022/11/24 00:48:24;;;;;;;14.77;4.32;;;;;;;11.56;62.04;100239.34;4918852;29;20068;-68
2022/11/24 00:51:03;;;;;;;14.70;4.00;;;;;;;11.55;61.90;100243.00;4918863;29;20135;-69
2022/11/24 00:53:30;;;;;;;12.57;3.78;;;;;;;11.54;61.94;100235.94;4918823;29;20048;-69
2022/11/24 00:55:57;;;;;;;15.10;4.05;;;;;;;11.51;61.92;100228.13;4918179;29;20048;-69
2022/11/24 00:58:24;;;;;;;12.27;4.25;;;;;;;11.51;61.95;100232.66;4918782;29;20048;-70
2022/11/24 01:00:51;;;;;;;10.85;3.22;;;;;;;11.49;61.92;100232.78;4918895;29;20042;-70
2022/11/24 01:03:19;;;;;;;16.42;4.20;;;;;;;11.48;62.13;100233.75;4901345;29;20147;-70
2022/11/24 01:05:46;;;;;;;16.95;4.00;;;;;;;11.46;61.93;100235.72;4918489;29;20079;-69
2022/11/24 01:08:13;;;;;;;17.35;4.18;;;;;;;11.43;61.85;100241.34;4918138;29;20042;-70
2022/11/24 01:10:40;;;;;;;14.32;4.05;;;;;;;11.42;61.73;100240.50;4919070;29;20051;-69
2022/11/24 01:13:06;;;;;;;21.90;4.90;;;;;;;11.39;62.14;100247.97;4918178;29;20040;-69
2022/11/24 01:15:36;;;;;;;14.73;4.00;;;;;;;11.40;62.42;100245.16;4917909;29;20040;-69
2022/11/24 01:18:03;;;;;;;14.13;3.72;;;;;;;11.38;62.14;100247.13;4899480;29;20128;-68
2022/11/24 01:20:31;;;;;;;18.38;3.85;;;;;;;11.40;62.00;100249.69;4898823;29;20072;-69
2022/11/24 01:22:57;;;;;;;14.13;3.85;;;;;;;11.39;62.13;100253.34;4882567;29;20036;-68
2022/11/24 01:25:24;;;;;;;15.45;3.92;;;;;;;11.36;62.13;100249.09;4899335;29;20108;-69
2022/11/24 01:27:50;;;;;;;20.50;3.58;;;;;;;11.37;62.42;100258.00;4917171;29;20051;-69
2022/11/24 01:30:17;;;;;;;14.13;3.88;;;;;;;11.36;62.24;100265.22;4918458;29;20048;-70
2022/11/24 01:32:44;;;;;;;15.65;4.70;;;;;;;11.38;62.21;100257.88;4918021;29;20510;-70
2022/11/24 01:35:11;;;;;;;16.75;3.78;;;;;;;11.39;62.43;100264.97;4918019;29;20043;-69
2022/11/24 01:37:37;;;;;;;12.80;3.50;;;;;;;11.41;62.14;100270.22;4900795;29;20071;-69
2022/11/24 01:40:04;;;;;;;16.52;3.40;;;;;;;11.41;62.13;100270.22;4918321;29;20103;-69
2022/11/24 01:42:51;;;;;;;14.73;3.55;;;;;;;11.36;62.03;100270.59;4917816;29;20435;-69
2022/11/24 01:45:40;;;;;;;14.10;4.03;;;;;;;11.38;62.29;100273.16;4917936;29;20046;-70
2022/11/24 01:48:23;;;;;;;10.02;3.65;;;;;;;11.36;62.31;100270.59;4899159;29;20044;-70
2022/11/24 01:51:10;;;;;;;17.98;4.32;;;;;;;11.34;62.32;100269.00;4882158;29;20049;-69
2022/11/24 01:53:42;;;;;;;18.13;3.92;;;;;;;11.36;62.17;100269.75;4898851;29;20048;-69
2022/11/24 01:56:11;;;;;;;14.68;3.70;;;;;;;11.36;62.42;100275.13;4888413;29;20100;-69
2022/11/24 01:58:39;;;;;;;16.92;4.00;;;;;;;11.35;62.16;100276.09;4918060;29;20044;-69
2022/11/24 02:01:06;;;;;;;10.73;3.15;;;;;;;11.33;62.32;100276.22;4900620;29;20082;-69
2022/11/24 02:03:37;;;;;;;13.27;3.80;;;;;;;11.33;62.36;100276.22;4917101;29;20471;-69
2022/11/24 02:06:12;;;;;;;20.63;4.20;;;;;;;11.36;62.51;100284.03;4901336;29;20044;-69
2022/11/24 02:09:07;;;;;;;15.80;4.72;;;;;;;11.36;62.39;100283.19;4918200;29;20044;-69
2022/11/24 02:11:36;;;;;;;12.93;3.67;;;;;;;11.37;62.14;100287.56;4917554;29;20048;-69
2022/11/24 02:14:04;;;;;;;14.70;4.10;;;;;;;11.38;62.15;100282.06;4916252;29;20044;-68
2022/11/24 02:16:34;;;;;;;20.38;4.50;;;;;;;11.40;62.39;100288.19;4917436;29;20079;-70
2022/11/24 02:19:13;;;;;;;14.25;4.32;;;;;;;11.39;62.45;100285.63;4917468;29;20040;-70
2022/11/24 02:21:40;;;;;;;12.38;3.60;;;;;;;11.39;62.20;100291.84;4916511;29;20051;-70
2022/11/24 02:24:23;;;;;;;15.90;4.43;;;;;;;11.39;62.22;100297.22;4900273;29;20083;-70
2022/11/24 02:26:51;;;;;;;15.15;4.43;;;;;;;11.39;62.42;100299.91;4917524;29;20384;-69
2022/11/24 02:29:19;;;;;;;17.17;3.50;;;;;;;11.42;62.17;100309.56;4900415;29;20041;-69
2022/11/24 02:31:51;;;;;;;12.20;3.63;;;;;;;11.42;62.21;100310.41;4932783;29;20047;-69
2022/11/24 02:34:18;;;;;;;16.40;3.97;;;;;;;11.44;62.32;100310.28;4936178;29;20044;-68
2022/11/24 02:36:45;;;;;;;15.57;4.40;;;;;;;11.45;62.33;100303.94;4935990;29;20036;-68
2022/11/24 02:39:16;;;;;;;16.40;4.05;;;;;;;11.47;62.24;100307.34;4936181;29;20050;-68
2022/11/24 02:41:48;;;;;;;18.08;4.35;;;;;;;11.49;62.13;100320.66;4935402;29;20071;-67
2022/11/24 02:44:18;;;;;;;13.05;4.25;;;;;;;11.49;62.20;100312.59;4919460;29;20139;-68
2022/11/24 02:46:45;;;;;;;15.73;4.30;;;;;;;11.47;62.29;100315.41;4935907;29;20055;-69
2022/11/24 02:49:12;;;;;;;18.65;4.18;;;;;;;11.46;62.36;100319.94;4936018;29;20126;-68
2022/11/24 02:51:38;;;;;;;16.40;4.07;;;;;;;11.45;62.16;100318.22;4934518;29;20040;-68
2022/11/24 02:54:05;;;;;;;18.67;4.60;;;;;;;11.45;62.20;100323.59;4919042;29;20055;-69
2022/11/24 02:56:35;;;;;;;12.13;3.25;;;;;;;11.46;61.99;100321.75;4930657;29;20056;-68
2022/11/24 02:59:02;;;;;;;13.80;3.53;;;;;;;11.48;62.20;100316.25;4898094;29;20049;-69
2022/11/24 03:01:28;;;;;;;13.50;3.72;;;;;;;11.44;62.03;100315.66;4897539;29;20057;-69
2022/11/24 03:03:55;;;;;;;13.05;3.55;;;;;;;11.45;62.10;100320.06;4897868;29;20045;-68
2022/11/24 03:06:22;;;;;;;21.88;4.53;;;;;;;11.43;61.97;100322.03;4897998;29;20040;-68
2022/11/24 03:08:48;;;;;;;15.77;4.00;;;;;;;11.39;61.67;100326.78;4898200;29;20049;-68
2022/11/24 03:11:15;;;;;;;16.05;4.60;;;;;;;11.33;61.72;100321.06;4897921;29;20068;-68
2022/11/24 03:13:42;;;;;;;17.42;4.75;;;;;;;11.31;61.79;100320.34;4897840;29;20044;-69
2022/11/24 03:16:09;;;;;;;19.88;4.93;;;;;;;11.28;61.89;100320.59;4898237;29;20048;-69
2022/11/24 03:18:36;;;;;;;14.05;4.65;;;;;;;11.27;62.02;100319.75;4934026;29;20054;-68
2022/11/24 03:21:02;;;;;;;18.85;4.10;;;;;;;11.28;62.04;100325.97;4936008;29;20063;-69
2022/11/24 03:23:29;;;;;;;15.15;4.00;;;;;;;11.29;62.08;100325.84;4935593;29;20189;-68
2022/11/24 03:26:15;;;;;;;19.38;3.97;;;;;;;11.32;62.36;100330.97;4935657;29;20058;-68
2022/11/24 03:28:43;;;;;;;13.60;4.25;;;;;;;11.34;62.38;100326.31;4915432;29;20127;-68
2022/11/24 03:31:10;;;;;;;16.42;3.90;;;;;;;11.39;62.46;100331.31;4917157;29;20036;-69
2022/11/24 03:33:37;;;;;;;15.32;4.18;;;;;;;11.39;62.45;100336.69;4899735;29;20410;-69
2022/11/24 03:36:06;;;;;;;17.98;4.63;;;;;;;11.40;62.27;100341.94;4916506;29;20071;-68
2022/11/24 03:38:32;;;;;;;14.43;4.15;;;;;;;11.42;62.62;100341.81;4915979;29;20099;-69
2022/11/24 03:40:59;;;;;;;13.57;4.13;;;;;;;11.43;62.34;100341.69;4916736;29;20091;-69
2022/11/24 03:43:26;;;;;;;16.13;4.63;;;;;;;11.42;62.45;100349.88;4918996;29;20041;-69
2022/11/24 03:45:52;;;;;;;20.02;4.43;;;;;;;11.42;62.23;100344.50;4920245;29;20052;-69
2022/11/24 03:48:20;;;;;;;17.55;4.40;;;;;;;11.44;62.37;100343.41;4919100;29;20055;-68
2022/11/24 03:50:55;;;;;;;21.40;4.90;;;;;;;11.46;62.46;100351.34;4919850;29;20044;-69
2022/11/24 03:53:23;;;;;;;16.17;4.38;;;;;;;11.49;62.58;100347.53;4919792;29;20044;-68
2022/11/24 03:55:50;;;;;;;18.27;4.25;;;;;;;11.49;62.58;100345.72;4919905;29;20132;-68
2022/11/24 03:58:17;;;;;;;19.70;4.53;;;;;;;11.49;62.34;100351.09;4933163;29;20068;-68
2022/11/24 04:00:45;;;;;;;15.32;4.35;;;;;;;11.50;62.37;100355.47;4938894;29;20057;-68
2022/11/24 04:03:11;;;;;;;18.63;4.90;;;;;;;11.50;62.46;100360.88;4938590;29;20046;-69
2022/11/24 04:05:38;;;;;;;22.80;4.70;;;;;;;11.52;62.75;100353.53;4943769;29;20134;-69
2022/11/24 04:08:05;;;;;;;18.35;4.88;;;;;;;11.54;62.87;100359.63;4925920;29;20052;-69
2022/11/24 04:10:35;;;;;;;20.77;4.85;;;;;;;11.55;62.82;100357.78;4919500;29;20503;-69
2022/11/24 04:13:13;;;;;;;20.90;4.53;;;;;;;11.58;62.73;100362.91;4919412;29;20055;-69
2022/11/24 04:15:41;;;;;;;25.63;4.53;;;;;;;11.59;62.63;100362.78;4919882;29;20056;-69
2022/11/24 04:18:10;;;;;;;17.77;4.25;;;;;;;11.61;62.87;100360.81;4918893;29;20418;-69
2022/11/24 04:20:37;;;;;;;27.35;5.10;;;;;;;11.63;62.94;100358.88;4919738;29;20067;-68
2022/11/24 04:23:03;;;;;;;25.88;4.95;;;;;;;11.63;62.81;100361.56;4919362;29;20128;-69
2022/11/24 04:25:30;;;;;;;18.60;4.70;;;;;;;11.66;63.10;100364.00;4919322;29;20051;-69
2022/11/24 04:27:57;;;;;;;20.45;5.38;;;;;;;11.70;62.95;100356.50;4907699;29;20068;-70
2022/11/24 04:30:26;;;;;;;16.45;4.35;;;;;;;11.72;62.68;100357.25;4900436;29;20122;-69
2022/11/24 04:32:52;;;;;;;18.90;5.00;;;;;;;11.74;62.97;100363.34;4900144;29;20065;-69
2022/11/24 04:35:20;;;;;;;18.85;4.88;;;;;;;11.75;62.75;100373.13;4868063;29;20051;-68
2022/11/24 04:37:46;;;;;;;21.23;5.03;;;;;;;11.74;62.73;100374.09;4908996;29;20050;-69
2022/11/24 04:40:14;;;;;;;22.35;5.82;;;;;;;11.72;62.89;100384.16;4919175;29;20044;-68
2022/11/24 04:42:41;;;;;;;20.55;4.53;;;;;;;11.72;62.77;100379.63;4918778;29;20108;-68
2022/11/24 04:45:09;;;;;;;23.13;5.47;;;;;;;11.72;62.74;100382.31;4919103;29;20048;-69
2022/11/24 04:47:35;;;;;;;19.75;5.03;;;;;;;11.72;63.12;100386.84;4924276;29;20058;-69
2022/11/24 04:50:03;;;;;;;25.77;5.53;;;;;;;11.73;63.00;100392.09;4937998;29;20036;-69
2022/11/24 04:52:30;;;;;;;21.70;5.78;;;;;;;11.76;62.93;100397.22;4937770;29;20044;-68
2022/11/24 04:54:56;;;;;;;20.45;5.13;;;;;;;11.80;63.06;100403.22;4936982;29;20047;-69
2022/11/24 04:57:25;;;;;;;18.83;5.20;;;;;;;11.81;63.03;100410.31;4936167;29;20159;-69
2022/11/24 04:59:53;;;;;;;19.73;4.85;;;;;;;11.84;63.17;100420.81;4937724;29;20048;-68
2022/11/24 05:02:20;;;;;;;16.95;4.28;;;;;;;11.87;63.02;100417.03;4937506;29;20099;-68
2022/11/24 05:04:47;;;;;;;17.38;4.57;;;;;;;11.89;63.29;100415.06;4938461;29;20096;-68
2022/11/24 05:07:15;;;;;;;15.02;4.55;;;;;;;11.89;62.94;100418.63;4919210;29;20091;-68
2022/11/24 05:12:31;;;;;;;13.55;4.13;;;;;;;11.94;63.34;100420.94;4937415;29;20040;-68
2022/11/24 05:14:59;;;;;;;15.98;4.15;;;;;;;11.95;63.31;100426.19;4937452;29;20482;-69
2022/11/24 05:17:30;;;;;;;22.40;5.25;;;;;;;11.96;63.31;100429.75;4931431;29;20048;-70
2022/11/24 05:19:57;;;;;;;16.48;4.05;;;;;;;11.95;63.34;100441.47;4918442;29;20048;-69
2022/11/24 05:22:24;;;;;;;13.75;4.00;;;;;;;11.96;63.17;100440.50;4917948;29;20059;-69
2022/11/24 05:24:51;;;;;;;13.05;3.53;;;;;;;11.97;63.24;100445.75;4918425;29;20047;-69
2022/11/24 05:27:18;;;;;;;15.93;3.78;;;;;;;11.98;63.09;100450.16;4921211;29;20046;-69
2022/11/24 05:29:44;;;;;;;15.38;4.85;;;;;;;11.99;62.98;100442.94;4937403;29;20050;-69
2022/11/24 05:32:11;;;;;;;13.80;3.35;;;;;;;12.01;63.13;100444.53;4937053;29;20130;-68
2022/11/24 05:34:38;;;;;;;13.18;3.60;;;;;;;12.03;63.08;100458.69;4937146;29;20044;-69
2022/11/24 05:37:05;;;;;;;16.05;4.03;;;;;;;12.04;63.05;100454.19;4899581;29;20439;-69
2022/11/24 05:39:33;;;;;;;13.02;3.63;;;;;;;12.05;63.16;100456.75;4918034;29;20555;-68
2022/11/24 05:42:39;;;;;;;16.23;4.20;;;;;;;12.06;63.17;100458.44;4917813;29;20036;-69
2022/11/24 05:44:51;;;;;;;22.90;4.45;;;;;;;12.10;63.08;100453.66;4917851;29;20048;-68
2022/11/24 05:47:18;;;;;;;21.90;4.25;;;;;;;12.09;62.98;100452.81;4906952;29;20084;-69
2022/11/24 05:49:45;;;;;;;14.23;3.83;;;;;;;12.08;62.95;100467.25;4899142;29;20052;-70
2022/11/24 05:52:12;;;;;;;19.50;4.97;;;;;;;12.08;62.93;100466.41;4898740;29;20093;-69
2022/11/24 05:54:38;;;;;;;18.02;4.38;;;;;;;12.08;63.26;100469.94;4898975;29;20049;-69
2022/11/24 05:57:05;;;;;;;15.38;3.60;;;;;;;12.11;63.23;100479.59;4914883;29;20043;-69
2022/11/24 05:59:32;;;;;;;15.85;3.65;;;;;;;12.11;62.83;100484.97;4928121;29;20044;-70
2022/11/24 06:01:59;;;;;;;14.45;3.85;;;;;;;12.13;62.98;100483.00;4917398;29;20036;-68
2022/11/24 06:04:30;;;;;;;11.07;3.42;;;;;;;12.15;63.04;100488.28;4917552;29;20131;-70
2022/11/24 06:06:58;;;;;;;9.68;3.53;;;;;;;12.15;62.94;100491.81;4899490;29;20428;-70
2022/11/24 06:09:24;;;;;;;12.10;3.42;;;;;;;12.15;62.91;100501.72;4901225;29;20119;-69
2022/11/24 06:11:51;;;;;;;18.27;4.20;;;;;;;12.17;63.29;100505.16;4917188;29;20044;-69
2022/11/24 06:14:18;;;;;;;19.85;4.45;;;;;;;12.16;63.17;100501.59;4917425;29;20044;-68
2022/11/24 06:16:44;;;;;;;18.45;4.20;;;;;;;12.17;63.11;100506.00;4917576;29;20071;-68
2022/11/24 06:19:11;;;;;;;20.67;4.55;;;;;;;12.15;63.22;100509.81;4917491;29;20044;-68
2022/11/24 06:21:37;;;;;;;20.48;5.70;;;;;;;12.13;63.07;100512.63;4917238;29;20048;-67
2022/11/24 06:24:05;;;;;;;24.63;4.90;;;;;;;12.13;63.53;100523.41;4917380;29;20100;-68
2022/11/24 06:26:31;;;;;;;20.13;4.75;;;;;;;12.13;63.09;100536.00;4914533;29;20100;-68
2022/11/24 06:28:58;;;;;;;25.48;5.78;;;;;;;12.12;63.50;100528.91;4897878;29;20041;-68
2022/11/24 06:31:24;;;;;;;24.38;5.63;;;;;;;12.11;63.44;100538.81;4898602;29;20044;-68
2022/11/24 06:33:52;;;;;;;23.73;5.70;;;;;;;12.10;63.53;100537.09;4898227;29;20443;-68
2022/11/24 06:36:19;;;;;;;19.30;5.45;;;;;;;12.10;63.52;100539.81;4898362;29;20080;-68
2022/11/24 06:38:45;;;;;;;21.20;5.30;;;;;;;12.10;63.74;100545.19;4899213;29;20046;-69
2022/11/24 06:41:14;;;;;;;30.95;4.95;;;;;;;12.10;63.60;100555.94;4881382;29;20045;-68
2022/11/24 06:43:41;;;;;;;27.33;5.35;;;;;;;12.09;63.55;100559.63;4898112;29;20055;-68
2022/11/24 06:46:08;;;;;;;24.15;5.97;;;;;;;12.11;63.70;100563.03;4898496;29;20096;-69
2022/11/24 06:48:35;;;;;;;22.33;5.35;;;;;;;12.11;63.71;100571.13;4915850;29;20044;-68
2022/11/24 06:51:06;;;;;;;29.00;5.88;;;;;;;12.14;63.68;100573.56;4922590;29;20040;-68
2022/11/24 06:53:37;;;;;;;17.63;5.15;;;;;;;12.13;63.96;100577.22;4917123;29;20047;-68
2022/11/24 06:56:06;;;;;;;19.02;4.70;;;;;;;12.17;64.00;100580.53;4917516;29;20056;-70
2022/11/24 06:58:43;;;;;;;21.30;6.00;;;;;;;12.18;63.69;100590.31;4926227;29;20123;-68
2022/11/24 07:01:17;;;;;;;17.13;4.65;;;;;;;12.19;63.82;100592.03;4917000;29;20036;-69
2022/11/24 07:03:44;;;;;;;20.43;5.33;;;;;;;12.20;63.95;100591.91;4900162;29;20036;-69
2022/11/24 07:06:11;;;;;;;15.80;4.75;;;;;;;12.21;63.73;100596.31;4917440;29;20096;-69
2022/11/24 07:08:37;;;;;;;15.27;4.05;;;;;;;12.21;63.95;100606.22;4914489;29;20045;-69
2022/11/24 07:11:09;;;;;;;13.45;4.55;;;;;;;12.20;63.75;100616.13;4897933;29;20045;-68
2022/11/24 07:13:36;;;;;;;17.52;4.15;;;;;;;12.18;63.77;100628.88;4897923;29;20048;-69
2022/11/24 07:16:19;;;;;;;12.88;3.83;;;;;;;12.19;63.77;100635.97;4897757;29;20080;-69
2022/11/24 07:18:47;;;;;;;10.18;3.75;;;;;;;12.19;63.64;100635.09;4901519;29;20055;-69
2022/11/24 07:21:15;;;;;;;11.60;3.67;;;;;;;12.17;63.73;100642.44;4928621;29;20067;-68
2022/11/24 07:23:41;;;;;;;10.02;3.45;;;;;;;12.16;63.49;100629.97;4922700;29;20048;-69
2022/11/24 07:26:09;;;;;;;14.45;3.17;;;;;;;12.15;63.54;100644.41;4939671;29;20053;-68
2022/11/24 07:28:36;;;;;;;9.55;2.85;;;;;;;12.13;63.57;100647.22;4920735;29;20043;-69
2022/11/24 07:31:05;;;;;;;11.10;3.55;;;;;;;12.11;63.42;100648.31;4887883;29;20036;-68
2022/11/24 07:33:32;;;;;;;8.68;2.55;;;;;;;12.11;63.44;100662.66;4902641;29;20418;-69
2022/11/24 07:35:59;;;;;;;8.45;2.40;;;;;;;12.10;63.22;100666.31;4919596;29;20072;-65
2022/11/24 07:38:28;;;;;;;6.00;2.47;;;;;;;12.09;63.05;100673.53;4920349;29;20099;-68
2022/11/24 07:41:02;;;;;;;10.27;2.78;;;;;;;12.07;63.22;100680.88;4920324;29;20071;-68
2022/11/24 07:43:30;;;;;;;5.75;2.05;;;;;;;12.09;63.05;100681.59;4919969;29;20469;-68
2022/11/24 07:45:58;;;;;;;7.60;1.90;;;;;;;12.07;63.26;100691.66;4919824;29;20079;-68
2022/11/24 07:48:25;;;;;;;7.53;2.45;;;;;;;12.08;63.14;100689.81;4903134;29;20494;-68
2022/11/24 07:50:51;;;;;;;7.57;2.10;;;;;;;12.09;63.19;100691.53;4918620;29;20103;-68
2022/11/24 07:53:21;;;;;;;9.18;2.33;;;;;;;12.10;62.92;100701.31;4918306;29;20059;-68
2022/11/24 07:55:57;;;;;;;9.77;2.40;;;;;;;12.09;63.13;100703.16;4918412;29;20048;-68
2022/11/24 07:58:23;;;;;;;7.32;2.10;;;;;;;12.12;63.03;100714.66;4918326;29;20040;-68
2022/11/24 08:00:57;;;;;;;9.00;2.53;;;;;;;12.13;62.94;100710.97;4918367;29;20056;-68
2022/11/24 08:03:24;;;;;;;10.68;2.17;;;;;;;12.13;63.06;100717.22;4918332;29;20036;-68
2022/11/24 08:05:58;;;;;;;6.43;2.13;;;;;;;12.12;62.79;100720.03;4902637;29;20059;-68
2022/11/24 08:08:45;;;;;;;6.10;1.80;;;;;;;12.14;62.95;100713.53;4919762;29;20040;-68
2022/11/24 08:11:15;;;;;;;9.30;2.13;;;;;;;12.15;62.82;100722.47;4902910;29;20050;-68
2022/11/24 08:13:42;;;;;;;9.23;2.20;;;;;;;12.14;62.96;100723.47;4919667;29;20040;-68
2022/11/24 08:16:13;;;;;;;5.55;1.83;;;;;;;12.17;62.78;100732.16;4919649;29;20071;-69
2022/11/24 08:18:41;;;;;;;8.25;2.17;;;;;;;12.19;62.74;100734.72;4919542;29;20048;-71
2022/11/24 08:21:12;;;;;;;4.95;2.03;;;;;;;12.21;62.94;100743.53;4919535;29;20067;-69
2022/11/24 08:23:40;;;;;;;7.68;1.90;;;;;;;12.20;62.95;100745.38;4919184;29;20410;-69
2022/11/24 08:26:12;;;;;;;7.53;1.95;;;;;;;12.23;62.63;100755.03;4919278;29;20044;-69
2022/11/24 08:28:39;;;;;;;8.55;1.73;;;;;;;12.23;63.04;100755.88;4918405;29;20526;-68
2022/11/24 08:31:12;;;;;;;10.43;2.10;;;;;;;12.24;62.82;100765.69;4919153;29;20046;-69
2022/11/24 08:33:40;;;;;;;5.60;2.00;;;;;;;12.24;62.78;100768.38;4919045;29;20036;-69
2022/11/24 08:36:12;;;;;;;5.43;1.98;;;;;;;12.25;62.87;100775.47;4919094;29;20044;-69
2022/11/24 08:38:39;;;;;;;8.55;2.05;;;;;;;12.32;62.90;100782.09;4919523;29;20044;-69
2022/11/24 08:41:09;;;;;;;7.63;2.03;;;;;;;12.41;62.89;100783.19;4919264;29;20051;-69
2022/11/24 08:43:36;;;;;;;7.55;2.33;;;;;;;12.50;63.35;100784.28;4918962;29;20119;-69
2022/11/24 08:46:05;;;;;;;10.80;2.47;;;;;;;12.58;63.35;100788.09;4902238;29;20071;-69
2022/11/24 08:48:33;;;;;;;9.00;2.20;;;;;;;12.67;63.13;100789.22;4918828;29;20048;-68
2022/11/24 08:51:09;;;;;;;6.93;2.03;;;;;;;12.76;63.19;100806.47;4919118;29;20051;-68
2022/11/24 08:53:35;;;;;;;8.10;2.10;;;;;;;12.84;63.18;100812.09;4901803;29;20044;-69
2022/11/24 08:56:03;;;;;;;6.70;2.00;;;;;;;12.93;62.86;100805.97;4901999;29;20048;-69
2022/11/24 08:58:30;;;;;;;6.10;2.00;;;;;;;13.03;62.76;100810.47;4918935;29;20036;-68
2022/11/24 09:01:27;;;;;;;6.95;2.35;;;;;;;13.14;62.69;100817.69;4918729;29;20048;-69
2022/11/24 09:03:54;;;;;;;8.32;2.13;;;;;;;13.27;62.64;100812.16;4903218;29;20060;-69
2022/11/24 09:06:23;;;;;;;7.38;2.55;;;;;;;13.36;62.24;100814.94;4918583;29;20079;-69
2022/11/24 09:08:52;;;;;;;12.27;2.35;;;;;;;13.43;61.84;100814.47;4901716;29;20051;-68
2022/11/24 09:11:19;;;;;;;8.70;2.40;;;;;;;13.46;61.98;100820.47;4918476;29;20036;-69
2022/11/24 09:13:46;;;;;;;6.72;2.50;;;;;;;13.47;61.40;100818.63;4901269;29;20071;-69
2022/11/24 09:16:20;;;;;;;7.95;2.50;;;;;;;13.48;61.36;100825.72;4901323;29;20044;-65
2022/11/24 09:18:53;;;;;;;8.03;2.47;;;;;;;13.50;61.43;100834.56;4915388;29;20060;-66
2022/11/24 09:21:20;;;;;;;9.07;2.33;;;;;;;13.52;61.04;100843.38;4907194;29;20047;-66
2022/11/24 09:23:49;;;;;;;9.80;2.20;;;;;;;13.51;61.13;100839.81;4918113;29;20040;-66
2022/11/24 09:26:17;;;;;;;8.02;2.40;;;;;;;13.49;61.09;100846.31;4918444;29;20059;-67
2022/11/24 09:28:45;;;;;;;7.55;2.53;;;;;;;13.50;61.19;100845.34;4916035;29;20044;-67
2022/11/24 09:31:14;;;;;;;8.68;2.10;;;;;;;13.51;60.83;100850.63;4899313;29;20044;-65
2022/11/24 09:33:41;;;;;;;6.63;2.10;;;;;;;13.52;60.70;100857.72;4899144;29;20051;-66
2022/11/24 09:36:08;;;;;;;8.40;2.42;;;;;;;13.51;60.57;100858.72;4899295;29;20490;-66
2022/11/24 09:38:35;;;;;;;11.70;2.75;;;;;;;13.51;60.94;100861.41;4899425;29;20045;-67
2022/11/24 09:41:13;;;;;;;8.75;2.53;;;;;;;13.54;60.51;100858.44;4905732;29;20036;-67
2022/11/24 09:43:46;;;;;;;5.85;2.33;;;;;;;13.57;60.60;100868.13;4917896;29;20036;-66
2022/11/24 09:46:25;;;;;;;9.02;2.47;;;;;;;13.57;60.45;100869.00;4917963;29;20092;-66
2022/11/24 09:48:56;;;;;;;9.18;2.88;;;;;;;13.62;60.67;100876.69;4899132;29;20074;-67
2022/11/24 09:51:28;;;;;;;8.80;2.63;;;;;;;13.66;60.60;100868.22;4899375;29;20040;-65
2022/11/24 09:54:08;;;;;;;11.13;2.65;;;;;;;13.74;60.79;100874.81;4898711;29;20043;-66
2022/11/24 09:56:39;;;;;;;9.27;2.67;;;;;;;13.83;60.64;100879.44;4898580;29;20057;-65
2022/11/24 09:59:17;;;;;;;8.15;2.70;;;;;;;13.92;60.54;100879.53;4899085;29;20056;-65
2022/11/24 10:01:45;;;;;;;10.25;2.33;;;;;;;14.02;60.70;100893.09;4881777;29;20040;-66
2022/11/24 10:04:18;;;;;;;12.52;3.13;;;;;;;14.12;60.29;100887.78;4897557;29;20449;-65
2022/11/24 10:07:16;;;;;;;10.07;2.67;;;;;;;14.18;60.61;100889.97;4896676;29;20055;-66
2022/11/24 10:10:05;;;;;;;13.20;3.30;;;;;;;14.31;60.43;100890.66;4896810;29;20048;-66
2022/11/24 10:12:43;;;;;;;11.20;2.80;;;;;;;14.40;59.94;100902.50;4896666;29;20081;-66
2022/11/24 10:15:15;;;;;;;12.77;3.65;;;;;;;14.47;59.62;100909.97;4896843;29;20094;-66
2022/11/24 10:18:08;;;;;;;9.70;3.22;;;;;;;14.51;59.86;100906.03;4880134;29;20503;-66
2022/11/24 10:20:51;;;;;;;11.20;3.00;;;;;;;14.59;59.67;100910.75;4898632;29;20045;-65
2022/11/24 10:23:24;;;;;;;10.20;2.70;;;;;;;14.67;59.52;100913.66;4881094;29;20112;-66
2022/11/24 10:25:54;;;;;;;11.40;3.30;;;;;;;14.75;59.18;100916.53;4901941;29;20040;-66
2022/11/24 10:28:27;;;;;;;14.30;3.70;;;;;;;14.80;59.42;100921.53;4926850;29;20040;-66
2022/11/24 10:31:12;;;;;;;10.55;3.25;;;;;;;14.85;59.15;100924.72;4919230;29;20093;-65
2022/11/24 10:33:40;;;;;;;8.43;3.13;;;;;;;14.91;58.63;100913.38;4936031;29;20399;-66
2022/11/24 10:36:15;;;;;;;9.23;3.08;;;;;;;15.01;58.98;100918.84;4928907;29;20048;-66
2022/11/24 10:38:55;;;;;;;10.60;3.08;;;;;;;15.10;58.39;100928.84;4916491;29;20032;-66
2022/11/24 10:41:59;;;;;;;15.52;2.83;;;;;;;15.19;58.48;100925.31;4916639;29;20088;-66
2022/11/24 10:44:26;;;;;;;9.98;3.13;;;;;;;15.29;58.57;100928.06;4915988;29;20043;-66
2022/11/24 10:46:52;;;;;;;13.63;3.40;;;;;;;15.33;58.56;100938.47;4898646;29;20056;-66
2022/11/24 10:49:25;;;;;;;15.88;3.50;;;;;;;15.39;58.11;100942.47;4916801;29;20040;-66
2022/11/24 10:52:11;;;;;;;15.00;3.20;;;;;;;15.49;57.84;100943.34;4907905;29;20058;-65
2022/11/24 10:54:54;;;;;;;11.30;2.80;;;;;;;15.56;58.13;100939.09;4902239;29;20079;-66
2022/11/24 10:57:36;;;;;;;11.30;3.65;;;;;;;15.64;57.89;100952.84;4925852;29;20052;-66
2022/11/24 11:00:23;;;;;;;11.43;2.92;;;;;;;15.72;57.95;100944.03;4940216;29;20040;-65
2022/11/24 11:03:10;;;;;;;14.20;3.15;;;;;;;15.78;57.25;100947.03;4927541;29;20040;-66
2022/11/24 11:05:43;;;;;;;12.45;3.20;;;;;;;15.82;57.43;100943.06;4937654;29;20048;-66
2022/11/24 11:08:13;;;;;;;10.95;3.17;;;;;;;15.85;57.12;100940.06;4937392;29;20040;-66
2022/11/24 11:10:41;;;;;;;14.50;3.17;;;;;;;15.91;57.07;100937.78;4939901;29;20142;-66
2022/11/24 11:13:28;;;;;;;12.60;3.63;;;;;;;15.99;57.04;100941.50;4934241;29;20048;-66
2022/11/24 11:15:57;;;;;;;10.60;3.10;;;;;;;16.05;56.65;100938.22;4901695;29;20052;-66
2022/11/24 11:18:32;;;;;;;12.55;3.60;;;;;;;16.11;56.82;100950.34;4884370;29;20069;-66
2022/11/24 11:21:02;;;;;;;9.82;2.90;;;;;;;16.13;56.62;100951.91;4901479;29;20068;-66
2022/11/24 11:23:35;;;;;;;13.93;3.45;;;;;;;16.16;56.51;100943.50;4868947;29;20045;-66
2022/11/24 11:26:24;;;;;;;9.98;2.97;;;;;;;16.19;56.55;100945.94;4917042;29;20040;-66
2022/11/24 11:29:06;;;;;;;10.80;3.03;;;;;;;16.25;56.53;100944.50;4920516;29;20105;-66
2022/11/24 11:32:21;;;;;;;12.80;3.00;;;;;;;16.28;56.22;100940.66;4920014;29;20112;-66
2022/11/24 11:35:11;;;;;;;10.93;3.40;;;;;;;16.37;55.92;100939.81;4920195;29;20056;-66
2022/11/24 11:37:39;;;;;;;10.70;3.13;;;;;;;16.39;55.82;100938.69;4903742;29;20048;-67